sensor_id;sensor_type;location;lat;lon;timestamp;pressure;altitude;pressure_sealevel;temperature;humidity
32251;BME280;41295;48.518;9.206;2023-08-06T00:01:45;96494.31;;;17.25;75.79
32251;BME280;41295;48.518;9.206;2023-08-06T00:03:47;96495.50;;;17.21;75.27
32251;BME280;41295;48.518;9.206;2023-08-06T00:05:50;96498.75;;;17.13;75.80
32251;BME280;41295;48.518;9.206;2023-08-06T00:07:54;96494.75;;;17.07;75.92
32251;BME280;41295;48.518;9.206;2023-08-06T00:09:57;96500.47;;;17.01;76.37
32251;BME280;41295;48.518;9.206;2023-08-06T00:11:59;96494.84;;;16.94;76.47
32251;BME280;41295;48.518;9.206;2023-08-06T00:14:02;96495.44;;;16.98;76.12
32251;BME280;41295;48.518;9.206;2023-08-06T00:16:09;96491.97;;;16.98;76.34
32251;BME280;41295;48.518;9.206;2023-08-06T00:18:12;96491.59;;;16.91;76.30
32251;BME280;41295;48.518;9.206;2023-08-06T00:20:14;96493.50;;;16.89;75.53
32251;BME280;41295;48.518;9.206;2023-08-06T00:22:17;96491.25;;;16.84;75.60
32251;BME280;41295;48.518;9.206;2023-08-06T00:24:21;96484.88;;;16.87;75.67
32251;BME280;41295;48.518;9.206;2023-08-06T00:26:23;96481.44;;;16.86;75.99
32251;BME280;41295;48.518;9.206;2023-08-06T00:28:26;96479.13;;;16.81;75.91
32251;BME280;41295;48.518;9.206;2023-08-06T00:30:28;96486.44;;;16.78;75.97
32251;BME280;41295;48.518;9.206;2023-08-06T00:32:30;96484.88;;;16.75;76.11
32251;BME280;41295;48.518;9.206;2023-08-06T00:34:33;96486.56;;;16.76;75.92
32251;BME280;41295;48.518;9.206;2023-08-06T00:36:36;96485.56;;;16.66;75.53
32251;BME280;41295;48.518;9.206;2023-08-06T00:38:38;96487.97;;;16.69;76.43
32251;BME280;41295;48.518;9.206;2023-08-06T00:40:42;96482.22;;;16.64;76.49
32251;BME280;41295;48.518;9.206;2023-08-06T00:42:45;96479.81;;;16.61;76.28
32251;BME280;41295;48.518;9.206;2023-08-06T00:44:47;96472.16;;;16.57;76.23
32251;BME280;41295;48.518;9.206;2023-08-06T00:46:50;96473.22;;;16.55;76.47
32251;BME280;41295;48.518;9.206;2023-08-06T00:48:53;96460.78;;;16.57;76.26
32251;BME280;41295;48.518;9.206;2023-08-06T00:50:56;96463.28;;;16.58;76.31
32251;BME280;41295;48.518;9.206;2023-08-06T00:52:59;96459.59;;;16.61;75.93
32251;BME280;41295;48.518;9.206;2023-08-06T00:55:02;96459.25;;;16.66;75.81
32251;BME280;41295;48.518;9.206;2023-08-06T00:57:07;96461.63;;;16.69;75.62
32251;BME280;41295;48.518;9.206;2023-08-06T00:59:11;96454.34;;;16.73;74.63
32251;BME280;41295;48.518;9.206;2023-08-06T01:01:15;96453.53;;;16.72;74.61
32251;BME280;41295;48.518;9.206;2023-08-06T01:03:17;96440.13;;;16.75;73.92
32251;BME280;41295;48.518;9.206;2023-08-06T01:05:20;96452.19;;;16.66;73.76
32251;BME280;41295;48.518;9.206;2023-08-06T01:07:33;96449.19;;;16.59;73.59
32251;BME280;41295;48.518;9.206;2023-08-06T01:09:50;96447.13;;;16.52;73.51
32251;BME280;41295;48.518;9.206;2023-08-06T01:12:06;96450.13;;;16.47;73.63
32251;BME280;41295;48.518;9.206;2023-08-06T01:14:18;96455.38;;;16.47;73.46
32251;BME280;41295;48.518;9.206;2023-08-06T01:16:24;96457.03;;;16.37;73.33
32251;BME280;41295;48.518;9.206;2023-08-06T01:18:26;96453.31;;;16.39;72.83
32251;BME280;41295;48.518;9.206;2023-08-06T01:20:30;96462.06;;;16.40;72.49
32251;BME280;41295;48.518;9.206;2023-08-06T01:22:33;96458.47;;;16.41;72.53
32251;BME280;41295;48.518;9.206;2023-08-06T01:24:36;96456.69;;;16.41;72.41
32251;BME280;41295;48.518;9.206;2023-08-06T01:26:42;96459.91;;;16.45;71.77
32251;BME280;41295;48.518;9.206;2023-08-06T01:28:52;96459.81;;;16.46;71.81
32251;BME280;41295;48.518;9.206;2023-08-06T01:30:59;96456.69;;;16.41;72.00
32251;BME280;41295;48.518;9.206;2023-08-06T01:33:04;96448.91;;;16.40;71.76
32251;BME280;41295;48.518;9.206;2023-08-06T01:35:09;96441.81;;;16.40;71.68
32251;BME280;41295;48.518;9.206;2023-08-06T01:37:15;96448.06;;;16.39;71.51
32251;BME280;41295;48.518;9.206;2023-08-06T01:39:17;96438.22;;;16.30;70.87
32251;BME280;41295;48.518;9.206;2023-08-06T01:41:22;96446.00;;;16.31;71.25
32251;BME280;41295;48.518;9.206;2023-08-06T01:43:25;96447.91;;;16.29;71.38
32251;BME280;41295;48.518;9.206;2023-08-06T01:45:26;96444.88;;;16.22;71.17
32251;BME280;41295;48.518;9.206;2023-08-06T01:47:29;96436.19;;;16.22;71.27
32251;BME280;41295;48.518;9.206;2023-08-06T01:49:32;96435.31;;;16.21;71.20
32251;BME280;41295;48.518;9.206;2023-08-06T01:51:34;96444.06;;;16.22;71.25
32251;BME280;41295;48.518;9.206;2023-08-06T01:53:38;96445.22;;;16.18;70.91
32251;BME280;41295;48.518;9.206;2023-08-06T01:55:41;96435.19;;;16.11;71.30
32251;BME280;41295;48.518;9.206;2023-08-06T01:57:44;96434.56;;;16.08;71.29
32251;BME280;41295;48.518;9.206;2023-08-06T01:59:46;96433.59;;;16.09;71.11
32251;BME280;41295;48.518;9.206;2023-08-06T02:01:49;96430.47;;;16.04;71.18
32251;BME280;41295;48.518;9.206;2023-08-06T02:03:52;96424.06;;;15.95;70.92
32251;BME280;41295;48.518;9.206;2023-08-06T02:05:55;96432.50;;;15.87;71.88
32251;BME280;41295;48.518;9.206;2023-08-06T02:07:57;96420.16;;;15.76;71.57
32251;BME280;41295;48.518;9.206;2023-08-06T02:10:01;96415.34;;;15.70;72.18
32251;BME280;41295;48.518;9.206;2023-08-06T02:12:05;96417.69;;;15.61;72.53
32251;BME280;41295;48.518;9.206;2023-08-06T02:14:08;96413.72;;;15.56;72.41
32251;BME280;41295;48.518;9.206;2023-08-06T02:16:11;96417.09;;;15.58;72.60
32251;BME280;41295;48.518;9.206;2023-08-06T02:18:14;96410.75;;;15.60;72.45
32251;BME280;41295;48.518;9.206;2023-08-06T02:20:17;96411.47;;;15.62;72.60
32251;BME280;41295;48.518;9.206;2023-08-06T02:22:19;96402.63;;;15.63;72.27
32251;BME280;41295;48.518;9.206;2023-08-06T02:24:22;96405.38;;;15.62;71.90
32251;BME280;41295;48.518;9.206;2023-08-06T02:26:26;96405.06;;;15.67;72.14
32251;BME280;41295;48.518;9.206;2023-08-06T02:28:29;96396.16;;;15.56;71.70
32251;BME280;41295;48.518;9.206;2023-08-06T02:30:31;96398.38;;;15.49;72.00
32251;BME280;41295;48.518;9.206;2023-08-06T02:32:34;96399.16;;;15.38;71.96
32251;BME280;41295;48.518;9.206;2023-08-06T02:34:37;96395.91;;;15.35;72.78
32251;BME280;41295;48.518;9.206;2023-08-06T02:36:40;96392.38;;;15.23;72.78
32251;BME280;41295;48.518;9.206;2023-08-06T02:38:42;96392.59;;;15.20;73.12
32251;BME280;41295;48.518;9.206;2023-08-06T02:40:45;96389.63;;;15.24;72.25
32251;BME280;41295;48.518;9.206;2023-08-06T02:42:49;96390.38;;;15.26;72.64
32251;BME280;41295;48.518;9.206;2023-08-06T02:44:52;96381.63;;;15.26;72.90
32251;BME280;41295;48.518;9.206;2023-08-06T02:46:54;96381.56;;;15.27;72.63
32251;BME280;41295;48.518;9.206;2023-08-06T02:48:56;96378.09;;;15.27;72.73
32251;BME280;41295;48.518;9.206;2023-08-06T02:50:59;96373.25;;;15.21;72.57
32251;BME280;41295;48.518;9.206;2023-08-06T02:53:01;96372.31;;;15.22;72.98
32251;BME280;41295;48.518;9.206;2023-08-06T02:55:05;96369.25;;;15.28;72.52
32251;BME280;41295;48.518;9.206;2023-08-06T02:57:07;96361.69;;;15.23;72.75
32251;BME280;41295;48.518;9.206;2023-08-06T02:59:11;96355.59;;;15.23;73.05
32251;BME280;41295;48.518;9.206;2023-08-06T03:01:14;96350.75;;;15.30;72.94
32251;BME280;41295;48.518;9.206;2023-08-06T03:03:17;96352.22;;;15.34;73.56
32251;BME280;41295;48.518;9.206;2023-08-06T03:05:19;96353.06;;;15.34;73.46
32251;BME280;41295;48.518;9.206;2023-08-06T03:07:22;96353.88;;;15.35;73.34
32251;BME280;41295;48.518;9.206;2023-08-06T03:09:25;96343.69;;;15.43;73.28
32251;BME280;41295;48.518;9.206;2023-08-06T03:11:27;96338.53;;;15.42;73.24
32251;BME280;41295;48.518;9.206;2023-08-06T03:13:30;96340.81;;;15.46;73.30
32251;BME280;41295;48.518;9.206;2023-08-06T03:15:34;96341.31;;;15.51;73.42
32251;BME280;41295;48.518;9.206;2023-08-06T03:17:36;96346.47;;;15.53;73.54
32251;BME280;41295;48.518;9.206;2023-08-06T03:19:39;96336.56;;;15.57;73.54
32251;BME280;41295;48.518;9.206;2023-08-06T03:21:41;96334.28;;;15.52;73.31
32251;BME280;41295;48.518;9.206;2023-08-06T03:23:46;96335.84;;;15.55;73.70
32251;BME280;41295;48.518;9.206;2023-08-06T03:25:49;96338.34;;;15.56;74.08
32251;BME280;41295;48.518;9.206;2023-08-06T03:27:52;96340.66;;;15.61;73.67
32251;BME280;41295;48.518;9.206;2023-08-06T03:29:54;96348.44;;;15.62;73.86
32251;BME280;41295;48.518;9.206;2023-08-06T03:31:58;96347.13;;;15.68;73.58
32251;BME280;41295;48.518;9.206;2023-08-06T03:34:01;96343.44;;;15.71;73.30
32251;BME280;41295;48.518;9.206;2023-08-06T03:36:04;96343.56;;;15.69;73.17
32251;BME280;41295;48.518;9.206;2023-08-06T03:38:06;96344.16;;;15.73;73.45
32251;BME280;41295;48.518;9.206;2023-08-06T03:40:10;96352.78;;;15.75;73.58
32251;BME280;41295;48.518;9.206;2023-08-06T03:42:13;96351.00;;;15.75;73.13
32251;BME280;41295;48.518;9.206;2023-08-06T03:44:15;96352.53;;;15.78;72.92
32251;BME280;41295;48.518;9.206;2023-08-06T03:46:18;96357.81;;;15.78;72.88
32251;BME280;41295;48.518;9.206;2023-08-06T03:48:21;96353.50;;;15.77;72.99
32251;BME280;41295;48.518;9.206;2023-08-06T03:50:23;96353.88;;;15.84;72.56
32251;BME280;41295;48.518;9.206;2023-08-06T03:52:26;96348.06;;;15.92;71.65
32251;BME280;41295;48.518;9.206;2023-08-06T03:54:29;96349.38;;;15.86;71.39
32251;BME280;41295;48.518;9.206;2023-08-06T03:56:32;96352.59;;;15.90;70.90
32251;BME280;41295;48.518;9.206;2023-08-06T03:58:34;96354.25;;;15.91;71.24
32251;BME280;41295;48.518;9.206;2023-08-06T04:00:37;96358.13;;;15.98;70.34
32251;BME280;41295;48.518;9.206;2023-08-06T04:02:40;96357.19;;;15.99;70.58
32251;BME280;41295;48.518;9.206;2023-08-06T04:04:43;96359.81;;;15.99;70.68
32251;BME280;41295;48.518;9.206;2023-08-06T04:06:46;96360.66;;;15.99;70.79
32251;BME280;41295;48.518;9.206;2023-08-06T04:08:48;96367.38;;;16.04;70.94
32251;BME280;41295;48.518;9.206;2023-08-06T04:10:50;96368.91;;;16.06;70.60
32251;BME280;41295;48.518;9.206;2023-08-06T04:12:53;96373.97;;;16.09;71.69
32251;BME280;41295;48.518;9.206;2023-08-06T04:14:57;96364.88;;;16.02;72.36
32251;BME280;41295;48.518;9.206;2023-08-06T04:17:00;96366.66;;;16.02;72.89
32251;BME280;41295;48.518;9.206;2023-08-06T04:19:02;96367.63;;;16.01;72.80
32251;BME280;41295;48.518;9.206;2023-08-06T04:21:06;96363.16;;;16.01;73.32
32251;BME280;41295;48.518;9.206;2023-08-06T04:23:09;96363.16;;;16.01;74.19
32251;BME280;41295;48.518;9.206;2023-08-06T04:25:11;96356.13;;;16.02;74.36
32251;BME280;41295;48.518;9.206;2023-08-06T04:27:15;96358.06;;;16.11;72.70
32251;BME280;41295;48.518;9.206;2023-08-06T04:29:18;96352.56;;;16.03;73.21
32251;BME280;41295;48.518;9.206;2023-08-06T04:31:20;96360.97;;;15.95;73.82
32251;BME280;41295;48.518;9.206;2023-08-06T04:33:23;96358.25;;;15.96;74.65
32251;BME280;41295;48.518;9.206;2023-08-06T04:35:26;96356.41;;;15.85;74.74
32251;BME280;41295;48.518;9.206;2023-08-06T04:37:30;96354.50;;;15.87;74.95
32251;BME280;41295;48.518;9.206;2023-08-06T04:39:32;96346.75;;;15.97;74.90
32251;BME280;41295;48.518;9.206;2023-08-06T04:41:35;96355.34;;;15.88;75.43
32251;BME280;41295;48.518;9.206;2023-08-06T04:43:38;96370.03;;;15.91;75.74
32251;BME280;41295;48.518;9.206;2023-08-06T04:45:45;96370.88;;;15.91;75.92
32251;BME280;41295;48.518;9.206;2023-08-06T04:47:48;96366.47;;;15.92;75.20
32251;BME280;41295;48.518;9.206;2023-08-06T04:49:51;96363.84;;;15.92;74.93
32251;BME280;41295;48.518;9.206;2023-08-06T04:51:53;96364.16;;;15.87;74.71
32251;BME280;41295;48.518;9.206;2023-08-06T04:53:58;96367.16;;;15.82;74.17
32251;BME280;41295;48.518;9.206;2023-08-06T04:55:59;96364.53;;;15.82;74.72
32251;BME280;41295;48.518;9.206;2023-08-06T04:58:02;96362.94;;;15.80;74.78
32251;BME280;41295;48.518;9.206;2023-08-06T05:00:08;96370.63;;;15.83;74.57
32251;BME280;41295;48.518;9.206;2023-08-06T05:02:13;96364.78;;;15.91;74.09
32251;BME280;41295;48.518;9.206;2023-08-06T05:04:16;96362.28;;;15.89;74.76
32251;BME280;41295;48.518;9.206;2023-08-06T05:06:18;96368.38;;;15.90;73.66
32251;BME280;41295;48.518;9.206;2023-08-06T05:08:21;96366.59;;;15.90;73.71
32251;BME280;41295;48.518;9.206;2023-08-06T05:10:25;96366.91;;;15.85;73.85
32251;BME280;41295;48.518;9.206;2023-08-06T05:12:28;96365.13;;;15.86;73.57
32251;BME280;41295;48.518;9.206;2023-08-06T05:14:31;96366.97;;;15.97;72.90
32251;BME280;41295;48.518;9.206;2023-08-06T05:16:33;96364.66;;;15.92;73.13
32251;BME280;41295;48.518;9.206;2023-08-06T05:18:36;96363.72;;;15.93;72.76
32251;BME280;41295;48.518;9.206;2023-08-06T05:20:40;96357.50;;;15.94;72.47
32251;BME280;41295;48.518;9.206;2023-08-06T05:22:43;96363.38;;;15.98;72.43
32251;BME280;41295;48.518;9.206;2023-08-06T05:24:46;96360.66;;;15.99;72.53
32251;BME280;41295;48.518;9.206;2023-08-06T05:26:50;96363.16;;;16.01;72.26
32251;BME280;41295;48.518;9.206;2023-08-06T05:28:52;96367.50;;;16.02;72.47
32251;BME280;41295;48.518;9.206;2023-08-06T05:30:55;96370.00;;;16.04;73.05
32251;BME280;41295;48.518;9.206;2023-08-06T05:32:58;96362.00;;;16.05;72.96
32251;BME280;41295;48.518;9.206;2023-08-06T05:35:00;96363.34;;;16.11;73.26
32251;BME280;41295;48.518;9.206;2023-08-06T05:37:05;96371.97;;;16.13;73.62
32251;BME280;41295;48.518;9.206;2023-08-06T05:39:07;96372.94;;;16.23;73.04
32251;BME280;41295;48.518;9.206;2023-08-06T05:41:10;96372.81;;;16.25;72.73
32251;BME280;41295;48.518;9.206;2023-08-06T05:43:14;96371.25;;;16.22;72.79
32251;BME280;41295;48.518;9.206;2023-08-06T05:45:16;96374.28;;;16.29;72.41
32251;BME280;41295;48.518;9.206;2023-08-06T05:47:20;96368.16;;;16.29;72.67
32251;BME280;41295;48.518;9.206;2023-08-06T05:49:22;96374.16;;;16.31;72.10
32251;BME280;41295;48.518;9.206;2023-08-06T05:51:26;96374.75;;;16.34;71.63
32251;BME280;41295;48.518;9.206;2023-08-06T05:53:29;96372.84;;;16.37;71.45
32251;BME280;41295;48.518;9.206;2023-08-06T05:55:30;96373.06;;;16.33;71.40
32251;BME280;41295;48.518;9.206;2023-08-06T05:57:34;96375.69;;;16.33;71.35
32251;BME280;41295;48.518;9.206;2023-08-06T05:59:37;96383.13;;;16.40;70.80
32251;BME280;41295;48.518;9.206;2023-08-06T06:01:39;96382.28;;;16.39;70.52
32251;BME280;41295;48.518;9.206;2023-08-06T06:03:42;96395.09;;;16.44;68.75
32251;BME280;41295;48.518;9.206;2023-08-06T06:05:45;96393.66;;;16.40;69.29
32251;BME280;41295;48.518;9.206;2023-08-06T06:07:47;96390.78;;;16.43;69.53
32251;BME280;41295;48.518;9.206;2023-08-06T06:09:50;96400.34;;;16.44;68.89
32251;BME280;41295;48.518;9.206;2023-08-06T06:11:52;96398.13;;;16.51;69.36
32251;BME280;41295;48.518;9.206;2023-08-06T06:13:55;96403.59;;;16.47;68.91
32251;BME280;41295;48.518;9.206;2023-08-06T06:15:59;96397.50;;;16.47;69.58
32251;BME280;41295;48.518;9.206;2023-08-06T06:18:02;96394.63;;;16.50;69.46
32251;BME280;41295;48.518;9.206;2023-08-06T06:20:06;96404.19;;;16.51;69.94
32251;BME280;41295;48.518;9.206;2023-08-06T06:22:08;96394.41;;;16.53;69.38
32251;BME280;41295;48.518;9.206;2023-08-06T06:24:10;96395.97;;;16.56;68.17
32251;BME280;41295;48.518;9.206;2023-08-06T06:26:13;96400.88;;;16.61;67.58
32251;BME280;41295;48.518;9.206;2023-08-06T06:28:15;96401.84;;;16.59;68.47
32251;BME280;41295;48.518;9.206;2023-08-06T06:30:18;96401.09;;;16.57;68.21
32251;BME280;41295;48.518;9.206;2023-08-06T06:32:22;96410.91;;;16.55;69.37
32251;BME280;41295;48.518;9.206;2023-08-06T06:34:25;96402.88;;;16.57;69.30
32251;BME280;41295;48.518;9.206;2023-08-06T06:36:28;96403.50;;;16.49;69.68
32251;BME280;41295;48.518;9.206;2023-08-06T06:38:30;96413.41;;;16.45;69.82
32251;BME280;41295;48.518;9.206;2023-08-06T06:40:33;96409.22;;;16.43;69.81
32251;BME280;41295;48.518;9.206;2023-08-06T06:42:35;96400.59;;;16.41;70.38
32251;BME280;41295;48.518;9.206;2023-08-06T06:44:38;96408.72;;;16.38;70.19
32251;BME280;41295;48.518;9.206;2023-08-06T06:46:41;96408.84;;;16.36;70.46
32251;BME280;41295;48.518;9.206;2023-08-06T06:48:45;96404.50;;;16.35;70.66
32251;BME280;41295;48.518;9.206;2023-08-06T06:50:47;96413.25;;;16.35;70.76
32251;BME280;41295;48.518;9.206;2023-08-06T06:52:50;96412.19;;;16.38;70.58
32251;BME280;41295;48.518;9.206;2023-08-06T06:54:53;96417.81;;;16.45;69.54
32251;BME280;41295;48.518;9.206;2023-08-06T06:56:55;96416.38;;;16.41;70.00
32251;BME280;41295;48.518;9.206;2023-08-06T06:58:58;96413.28;;;16.47;69.76
32251;BME280;41295;48.518;9.206;2023-08-06T07:01:01;96420.47;;;16.45;68.87
32251;BME280;41295;48.518;9.206;2023-08-06T07:03:03;96420.47;;;16.45;70.16
32251;BME280;41295;48.518;9.206;2023-08-06T07:05:08;96419.97;;;16.40;70.60
32251;BME280;41295;48.518;9.206;2023-08-06T07:07:11;96425.25;;;16.51;69.52
32251;BME280;41295;48.518;9.206;2023-08-06T07:09:13;96417.72;;;16.46;69.34
32251;BME280;41295;48.518;9.206;2023-08-06T07:11:16;96419.00;;;16.41;68.93
32251;BME280;41295;48.518;9.206;2023-08-06T07:13:18;96426.81;;;16.54;69.27
32251;BME280;41295;48.518;9.206;2023-08-06T07:15:21;96421.69;;;16.52;69.03
32251;BME280;41295;48.518;9.206;2023-08-06T07:17:24;96427.88;;;16.51;69.34
32251;BME280;41295;48.518;9.206;2023-08-06T07:19:26;96417.84;;;16.56;68.90
32251;BME280;41295;48.518;9.206;2023-08-06T07:21:30;96422.78;;;16.61;70.41
32251;BME280;41295;48.518;9.206;2023-08-06T07:23:34;96433.28;;;16.73;68.89
32251;BME280;41295;48.518;9.206;2023-08-06T07:25:36;96426.50;;;16.70;69.49
32251;BME280;41295;48.518;9.206;2023-08-06T07:27:39;96419.53;;;16.69;69.99
32251;BME280;41295;48.518;9.206;2023-08-06T07:29:42;96431.38;;;16.75;70.09
32251;BME280;41295;48.518;9.206;2023-08-06T07:31:44;96424.78;;;16.69;70.88
32251;BME280;41295;48.518;9.206;2023-08-06T07:33:47;96436.38;;;16.55;71.32
32251;BME280;41295;48.518;9.206;2023-08-06T07:35:50;96420.81;;;16.52;71.28
32251;BME280;41295;48.518;9.206;2023-08-06T07:37:54;96431.00;;;16.56;70.31
32251;BME280;41295;48.518;9.206;2023-08-06T07:39:57;96438.75;;;16.46;71.41
32251;BME280;41295;48.518;9.206;2023-08-06T07:41:59;96436.56;;;16.40;72.13
32251;BME280;41295;48.518;9.206;2023-08-06T07:44:04;96441.75;;;16.42;72.76
32251;BME280;41295;48.518;9.206;2023-08-06T07:46:06;96443.66;;;16.40;72.51
32251;BME280;41295;48.518;9.206;2023-08-06T07:48:09;96444.03;;;16.46;71.37
32251;BME280;41295;48.518;9.206;2023-08-06T07:50:12;96441.88;;;16.52;69.32
32251;BME280;41295;48.518;9.206;2023-08-06T07:52:15;96430.38;;;16.41;70.43
32251;BME280;41295;48.518;9.206;2023-08-06T07:54:19;96438.88;;;16.45;70.36
32251;BME280;41295;48.518;9.206;2023-08-06T07:56:21;96441.81;;;16.40;70.37
32251;BME280;41295;48.518;9.206;2023-08-06T07:58:25;96450.25;;;16.45;70.41
32251;BME280;41295;48.518;9.206;2023-08-06T08:00:27;96444.13;;;16.45;70.52
32251;BME280;41295;48.518;9.206;2023-08-06T08:02:36;96441.50;;;16.45;70.15
32251;BME280;41295;48.518;9.206;2023-08-06T08:04:39;96449.28;;;16.46;70.10
32251;BME280;41295;48.518;9.206;2023-08-06T08:06:41;96440.78;;;16.43;70.21
32251;BME280;41295;48.518;9.206;2023-08-06T08:08:44;96441.13;;;16.38;70.06
32251;BME280;41295;48.518;9.206;2023-08-06T08:10:48;96447.25;;;16.50;69.99
32251;BME280;41295;48.518;9.206;2023-08-06T08:12:51;96444.75;;;16.49;70.24
32251;BME280;41295;48.518;9.206;2023-08-06T08:14:53;96452.66;;;16.60;70.42
32251;BME280;41295;48.518;9.206;2023-08-06T08:16:56;96448.13;;;16.62;70.00
32251;BME280;41295;48.518;9.206;2023-08-06T08:18:58;96446.56;;;16.59;70.43
32251;BME280;41295;48.518;9.206;2023-08-06T08:21:00;96447.19;;;16.63;69.94
32251;BME280;41295;48.518;9.206;2023-08-06T08:23:03;96445.59;;;16.61;70.75
32251;BME280;41295;48.518;9.206;2023-08-06T08:25:06;96450.63;;;16.64;70.29
32251;BME280;41295;48.518;9.206;2023-08-06T08:27:10;96454.59;;;16.58;69.63
32251;BME280;41295;48.518;9.206;2023-08-06T08:29:13;96453.25;;;16.64;68.69
32251;BME280;41295;48.518;9.206;2023-08-06T08:31:15;96452.44;;;16.63;69.12
32251;BME280;41295;48.518;9.206;2023-08-06T08:33:18;96452.41;;;16.52;68.92
32251;BME280;41295;48.518;9.206;2023-08-06T08:35:20;96448.72;;;16.54;69.18
32251;BME280;41295;48.518;9.206;2023-08-06T08:37:23;96449.88;;;16.50;69.53
32251;BME280;41295;48.518;9.206;2023-08-06T08:39:26;96442.13;;;16.49;70.24
32251;BME280;41295;48.518;9.206;2023-08-06T08:41:29;96444.97;;;16.45;71.17
32251;BME280;41295;48.518;9.206;2023-08-06T08:43:34;96443.91;;;16.48;71.99
32251;BME280;41295;48.518;9.206;2023-08-06T08:45:39;96447.25;;;16.50;72.21
32251;BME280;41295;48.518;9.206;2023-08-06T08:47:42;96448.91;;;16.51;71.75
32251;BME280;41295;48.518;9.206;2023-08-06T08:49:46;96449.72;;;16.40;70.75
32251;BME280;41295;48.518;9.206;2023-08-06T08:51:50;96441.03;;;16.51;71.39
32251;BME280;41295;48.518;9.206;2023-08-06T08:53:55;96444.75;;;16.60;71.01
32251;BME280;41295;48.518;9.206;2023-08-06T08:55:58;96451.84;;;16.71;69.95
32251;BME280;41295;48.518;9.206;2023-08-06T08:58:01;96447.78;;;16.67;70.36
32251;BME280;41295;48.518;9.206;2023-08-06T09:00:06;96458.56;;;16.75;69.43
32251;BME280;41295;48.518;9.206;2023-08-06T09:02:11;96458.56;;;16.75;70.12
32251;BME280;41295;48.518;9.206;2023-08-06T09:04:15;96453.66;;;16.70;71.09
32251;BME280;41295;48.518;9.206;2023-08-06T09:06:19;96449.56;;;16.78;70.77
32251;BME280;41295;48.518;9.206;2023-08-06T09:08:27;96458.19;;;16.68;70.05
32251;BME280;41295;48.518;9.206;2023-08-06T09:10:30;96466.41;;;16.64;70.80
32251;BME280;41295;48.518;9.206;2023-08-06T09:12:33;96459.00;;;16.69;69.23
32251;BME280;41295;48.518;9.206;2023-08-06T09:14:35;96472.09;;;16.70;69.17
32251;BME280;41295;48.518;9.206;2023-08-06T09:16:38;96469.16;;;16.62;70.31
32251;BME280;41295;48.518;9.206;2023-08-06T09:18:41;96472.09;;;16.70;71.03
32251;BME280;41295;48.518;9.206;2023-08-06T09:20:44;96474.81;;;16.69;71.23
32251;BME280;41295;48.518;9.206;2023-08-06T09:22:47;96467.50;;;16.73;71.60
32251;BME280;41295;48.518;9.206;2023-08-06T09:24:50;96465.50;;;16.76;70.71
32251;BME280;41295;48.518;9.206;2023-08-06T09:26:53;96466.69;;;16.83;70.29
32251;BME280;41295;48.518;9.206;2023-08-06T09:28:59;96469.81;;;16.89;71.00
32251;BME280;41295;48.518;9.206;2023-08-06T09:31:02;96470.31;;;17.05;72.15
32251;BME280;41295;48.518;9.206;2023-08-06T09:33:09;96468.56;;;17.17;70.38
32251;BME280;41295;48.518;9.206;2023-08-06T09:35:16;96472.88;;;17.30;70.15
32251;BME280;41295;48.518;9.206;2023-08-06T09:37:19;96480.91;;;17.28;67.81
32251;BME280;41295;48.518;9.206;2023-08-06T09:39:26;96475.38;;;17.31;65.97
32251;BME280;41295;48.518;9.206;2023-08-06T09:41:30;96466.28;;;17.36;67.80
32251;BME280;41295;48.518;9.206;2023-08-06T09:43:39;96468.22;;;17.34;68.50
32251;BME280;41295;48.518;9.206;2023-08-06T09:45:42;96471.69;;;17.34;68.62
32251;BME280;41295;48.518;9.206;2023-08-06T09:47:45;96480.19;;;17.26;68.25
32251;BME280;41295;48.518;9.206;2023-08-06T09:49:50;96474.81;;;17.16;68.83
32251;BME280;41295;48.518;9.206;2023-08-06T09:51:53;96483.56;;;17.17;69.58
32251;BME280;41295;48.518;9.206;2023-08-06T09:53:58;96482.22;;;17.11;69.11
32251;BME280;41295;48.518;9.206;2023-08-06T09:56:08;96487.78;;;17.06;70.25
32251;BME280;41295;48.518;9.206;2023-08-06T09:58:12;96482.78;;;17.03;70.32
32251;BME280;41295;48.518;9.206;2023-08-06T10:00:15;96495.09;;;17.03;69.64
32251;BME280;41295;48.518;9.206;2023-08-06T10:02:20;96494.53;;;17.11;68.87
32251;BME280;41295;48.518;9.206;2023-08-06T10:04:24;96497.25;;;16.98;69.47
32251;BME280;41295;48.518;9.206;2023-08-06T10:06:40;96492.94;;;16.97;69.44
32251;BME280;41295;48.518;9.206;2023-08-06T10:08:43;96493.44;;;17.02;71.44
32251;BME280;41295;48.518;9.206;2023-08-06T10:10:46;96490.88;;;16.89;71.04
32251;BME280;41295;48.518;9.206;2023-08-06T10:12:50;96494.84;;;16.83;71.64
32251;BME280;41295;48.518;9.206;2023-08-06T10:14:55;96490.03;;;16.77;72.20
32251;BME280;41295;48.518;9.206;2023-08-06T10:16:59;96498.13;;;16.62;72.08
32251;BME280;41295;48.518;9.206;2023-08-06T10:19:04;96497.63;;;16.57;72.62
32251;BME280;41295;48.518;9.206;2023-08-06T10:21:07;96489.00;;;16.55;72.43
32251;BME280;41295;48.518;9.206;2023-08-06T10:23:12;96488.50;;;16.50;73.72
32251;BME280;41295;48.518;9.206;2023-08-06T10:25:16;96492.97;;;16.49;72.42
32251;BME280;41295;48.518;9.206;2023-08-06T10:27:20;96498.53;;;16.44;71.99
32251;BME280;41295;48.518;9.206;2023-08-06T10:29:35;96494.97;;;16.45;72.81
32251;BME280;41295;48.518;9.206;2023-08-06T10:31:53;96505.88;;;16.52;72.02
32251;BME280;41295;48.518;9.206;2023-08-06T10:33:57;96496.91;;;16.55;73.17
32251;BME280;41295;48.518;9.206;2023-08-06T10:36:01;96504.78;;;16.55;73.55
32251;BME280;41295;48.518;9.206;2023-08-06T10:38:09;96505.78;;;16.65;73.26
32251;BME280;41295;48.518;9.206;2023-08-06T10:40:20;96520.41;;;16.69;72.00
32251;BME280;41295;48.518;9.206;2023-08-06T10:42:27;96504.47;;;16.71;71.22
32251;BME280;41295;48.518;9.206;2023-08-06T10:44:30;96543.22;;;16.69;71.91
32251;BME280;41295;48.518;9.206;2023-08-06T10:46:33;96515.38;;;16.78;71.64
32251;BME280;41295;48.518;9.206;2023-08-06T10:48:37;96515.50;;;16.76;72.76
32251;BME280;41295;48.518;9.206;2023-08-06T10:50:40;96513.47;;;16.68;72.81
32251;BME280;41295;48.518;9.206;2023-08-06T10:52:44;96512.06;;;16.76;72.97
32251;BME280;41295;48.518;9.206;2023-08-06T10:54:47;96521.38;;;16.80;72.97